ADDS METAR Data INFO
IDs: Format: Raw Decoded Include TAF

Data at: 0839 UTC 21 Oct 2017

KYIP 210753Z 00000KT 10SM CLR 09/07 A3017 RMK AO2 SLP214 T00890072
KYIP 210653Z 00000KT 10SM CLR 10/08 A3017 RMK AO2 SLP213 T01000078
KYIP 210553Z 00000KT 10SM CLR 10/08 A3017 RMK AO2 SLP213 T01000078 10161 20100 53005
KYIP 210453Z 00000KT 10SM CLR 12/08 A3016 RMK AO2 SLP211 T01220083 402560033
KYIP 210353Z 20005KT 10SM CLR 13/09 A3016 RMK AO2 SLP210 T01330089
KYIP 210253Z 17004KT 10SM CLR 14/10 A3016 RMK AO2 SLP209 T01440100 55002
KYIP 210153Z AUTO 00000KT 10SM CLR 12/09 A3016 RMK AO2 SLP210 T01220089
KYIP 210053Z AUTO 00000KT 10SM CLR 14/09 A3016 RMK AO2 SLP211 T01390089
KYIP 202353Z AUTO 16006KT 10SM CLR 16/09 A3016 RMK AO2 SLP214 T01610089 10256 20161 55001
KYIP 202253Z AUTO 15007KT 10SM CLR 17/09 A3016 RMK AO2 SLP212 T01720094
KYIP 202153Z AUTO 14007KT 10SM CLR 22/10 A3016 RMK AO2 SLP210 T02170100
KYIP 202053Z AUTO 18008KT 10SM CLR 25/08 A3017 RMK AO2 SLP212 T02500078 56020
KYIP 201953Z AUTO 20010KT 10SM CLR 26/08 A3018 RMK AO2 SLP217 T02560078
KYIP 201853Z AUTO 19012KT 10SM CLR 25/08 A3020 RMK AO2 SLP224 T02500078
KYIP 201753Z AUTO VRB06KT 10SM CLR 23/06 A3023 RMK AO2 SLP232 T02330056 10239 20050 58021
KYIP 201653Z AUTO 17010KT 10SM CLR 22/04 A3026 RMK AO2 SLP243 T02170044
KYIP 201553Z AUTO 18007KT 10SM CLR 19/04 A3027 RMK AO2 SLP249 T01940039
KYIP 201453Z AUTO 21008KT 10SM CLR 17/03 A3029 RMK AO2 SLP255 T01670033 50007
KYIP 201353Z AUTO 21006KT 10SM CLR 14/02 A3030 RMK AO2 SLP257 T01390022
KYIP 201253Z AUTO 22005KT 10SM CLR 09/03 A3029 RMK AO2 SLP256 T00940028
KYIP 201153Z AUTO 22004KT 10SM CLR 06/02 A3027 RMK AO2 SLP250 T00560022 10094 20033 53016
KYIP 201053Z 00000KT 10SM CLR 05/02 A3024 RMK AO2 SLP241 T00500017
KYIP 200953Z 00000KT 10SM CLR 05/02 A3024 RMK AO2 SLP239 T00500017
KYIP 200853Z 00000KT 10SM CLR 06/02 A3022 RMK AO2 SLP232 T00610017 52003
KYIP 200753Z 03003KT 10SM CLR 06/01 A3022 RMK AO2 SLP230 T00560011
KYIP 200653Z 30004KT 10SM CLR 08/02 A3022 RMK AO2 SLP230 T00780017
KYIP 200553Z 30003KT 10SM CLR 09/02 A3021 RMK AO2 SLP227 T00940017 10139 20072 51008
KYIP 200453Z 28004KT 10SM CLR 09/03 A3021 RMK AO2 SLP227 T00890028 402330083
KYIP 200353Z 29004KT 10SM CLR 11/02 A3019 RMK AO2 SLP222 T01060022
KYIP 200253Z 30005KT 10SM CLR 11/02 A3019 RMK AO2 SLP220 T01060022 52009
KYIP 200153Z AUTO 30004KT 10SM CLR 12/03 A3017 RMK AO2 SLP216 T01170028
KYIP 200053Z AUTO 28005KT 10SM CLR 12/02 A3017 RMK AO2 SLP215 T01220022
KYIP 192353Z AUTO 28006KT 10SM CLR 14/01 A3016 RMK AO2 SLP211 T01390006 10233 20139 53016
KYIP 192253Z AUTO 28008KT 10SM CLR 17/01 A3014 RMK AO2 SLP204 T01720006
KYIP 192153Z AUTO 28011KT 10SM CLR 20/M01 A3013 RMK AO2 SLP198 T02001006
KYIP 192053Z AUTO 28013KT 10SM CLR 22/M01 A3011 RMK AO2 SLP192 T02221011 55001